Time;durP1;ratioP1;P1;durP2;ratioP2;P2;SDS_P1;SDS_P2;PMS_P1;PMS_P2;Temp;Humidity;BMP_temperature;BMP_pressure;BME280_temperature;BME280_humidity;BME280_pressure;Samples;Min_cycle;Max_cycle;Signal;HPM_P1;HPM_P2
2022/04/21 00:01:31;;;;;;;7.30;4.97;;;;;;;8.20;60.06;96120.38;5035808;28;20182;-68
2022/04/21 00:03:56;;;;;;;6.37;4.93;;;;;;;8.23;60.00;96119.13;5035577;28;20230;-68
2022/04/21 00:06:22;;;;;;;6.73;5.13;;;;;;;8.17;60.07;96120.84;5035520;28;20594;-67
2022/04/21 00:08:47;;;;;;;5.73;5.17;;;;;;;8.14;60.75;96118.66;5035418;28;20609;-69
2022/04/21 00:11:13;;;;;;;6.20;5.50;;;;;;;8.12;60.79;96114.72;5035033;28;20270;-70
2022/04/21 00:13:38;;;;;;;8.47;5.97;;;;;;;8.09;60.53;96104.72;5017389;28;20544;-68
2022/04/21 00:16:04;;;;;;;8.20;6.13;;;;;;;8.17;60.64;96107.00;5035732;28;20233;-68
2022/04/21 00:18:29;;;;;;;8.37;6.63;;;;;;;8.16;60.84;96100.97;5035445;28;20606;-68
2022/04/21 00:20:57;;;;;;;7.80;5.70;;;;;;;8.07;60.84;96102.34;5035444;28;20186;-68
2022/04/21 00:23:29;;;;;;;8.00;6.47;;;;;;;8.05;61.17;96099.16;5035248;28;20221;-69
2022/04/21 00:25:58;;;;;;;9.37;6.43;;;;;;;7.94;61.62;96092.91;5035641;28;20218;-68
2022/04/21 00:28:24;;;;;;;6.50;5.90;;;;;;;7.83;62.13;96096.31;5017674;28;20206;-67
2022/04/21 00:30:50;;;;;;;7.83;5.50;;;;;;;7.82;62.30;96097.34;5035076;28;20210;-67
2022/04/21 00:33:15;;;;;;;6.20;5.30;;;;;;;7.77;62.68;96104.25;5034915;28;20243;-68
2022/04/21 00:35:41;;;;;;;6.37;5.60;;;;;;;7.77;62.73;96101.63;5035195;28;20183;-68
2022/04/21 00:38:06;;;;;;;7.93;5.53;;;;;;;7.71;63.22;96097.31;5034985;28;20614;-68
2022/04/21 00:40:32;;;;;;;6.57;5.60;;;;;;;7.51;63.91;96095.03;5034178;28;20194;-68
2022/04/21 00:42:58;;;;;;;7.17;6.47;;;;;;;7.46;64.29;96087.09;5035024;28;20186;-69
2022/04/21 00:45:24;;;;;;;9.93;6.40;;;;;;;7.42;64.68;96097.16;5035183;28;20203;-68
2022/04/21 00:47:52;;;;;;;7.17;6.03;;;;;;;7.50;64.47;96096.03;5034208;28;20195;-68
2022/04/21 00:50:43;;;;;;;6.63;5.80;;;;;;;7.56;64.35;96091.75;5034964;28;20183;-67
2022/04/21 00:53:09;;;;;;;9.13;6.53;;;;;;;7.59;64.63;96088.69;5033959;28;20721;-67
2022/04/21 00:55:37;;;;;;;9.00;6.67;;;;;;;7.44;65.15;96089.91;5034797;28;20190;-68
2022/04/21 00:58:05;;;;;;;8.47;6.50;;;;;;;7.45;65.10;96099.31;5034302;28;20179;-70
2022/04/21 01:00:30;;;;;;;9.50;6.10;;;;;;;7.53;64.79;96085.94;5034690;28;20233;-68
2022/04/21 01:02:58;;;;;;;8.87;6.57;;;;;;;7.42;65.02;96089.31;5034396;28;20607;-68
2022/04/21 01:05:30;;;;;;;10.67;7.70;;;;;;;7.43;65.29;96090.13;5016764;28;20189;-69
2022/04/21 01:07:57;;;;;;;7.60;6.90;;;;;;;7.45;65.38;96094.13;5034279;28;20178;-68
2022/04/21 01:10:25;;;;;;;8.47;7.17;;;;;;;7.47;65.40;96088.66;5034330;28;20197;-67
2022/04/21 01:12:51;;;;;;;7.20;6.47;;;;;;;7.45;65.48;96093.31;5034632;28;20190;-68
2022/04/21 01:15:16;;;;;;;9.93;8.13;;;;;;;7.46;65.57;96081.88;5034231;28;20191;-68
2022/04/21 01:17:42;;;;;;;7.60;6.80;;;;;;;7.40;65.91;96082.75;5033970;28;20187;-70
2022/04/21 01:20:11;;;;;;;9.67;7.40;;;;;;;7.47;65.71;96080.81;5016615;28;20175;-68
2022/04/21 01:22:36;;;;;;;8.10;7.30;;;;;;;7.46;66.10;96080.06;5034442;28;20225;-68
2022/04/21 01:25:03;;;;;;;9.47;7.17;;;;;;;7.35;66.38;96080.03;5034090;28;20328;-69
2022/04/21 01:27:31;;;;;;;8.20;7.20;;;;;;;7.41;66.19;96085.13;5034299;28;20198;-68
2022/04/21 01:29:57;;;;;;;7.90;7.10;;;;;;;7.45;66.37;96090.72;5033602;28;20198;-68
2022/04/21 01:32:23;;;;;;;8.20;7.50;;;;;;;7.35;66.54;96085.25;5015954;28;20209;-67
2022/04/21 01:34:48;;;;;;;10.37;6.67;;;;;;;7.24;67.04;96084.19;5033378;28;20187;-67
2022/04/21 01:42:41;;;;;;;8.60;7.77;;;;;;;7.03;67.82;96082.06;5033802;28;20787;-69
2022/04/21 01:45:07;;;;;;;8.47;7.33;;;;;;;7.02;68.09;96083.88;5033120;28;20275;-69
2022/04/21 01:47:33;;;;;;;8.70;7.63;;;;;;;6.95;68.14;96080.59;5033686;28;20301;-71
2022/04/21 01:49:58;;;;;;;9.93;8.63;;;;;;;6.84;68.55;96085.75;5032542;28;20293;-69
2022/04/21 01:52:23;;;;;;;8.53;7.63;;;;;;;6.88;68.87;96085.09;5033412;28;20193;-68
2022/04/21 01:54:50;;;;;;;12.87;8.13;;;;;;;6.93;68.61;96080.00;5033087;28;20193;-68
2022/04/21 01:57:18;;;;;;;9.07;7.87;;;;;;;6.77;69.16;96093.63;5033313;28;20688;-68
2022/04/21 01:59:44;;;;;;;10.60;7.63;;;;;;;6.89;69.17;96083.28;5033674;28;20183;-68
2022/04/21 02:02:09;;;;;;;9.00;8.10;;;;;;;6.85;69.39;96074.31;5015445;28;20189;-67
2022/04/21 02:04:34;;;;;;;10.83;8.57;;;;;;;6.76;69.66;96078.22;5033567;28;20226;-69
2022/04/21 02:07:00;;;;;;;12.37;8.90;;;;;;;6.72;69.92;96072.66;5033716;28;20187;-68
2022/04/21 02:09:26;;;;;;;10.37;8.77;;;;;;;6.66;70.38;96076.16;5032806;28;20205;-68
2022/04/21 02:11:51;;;;;;;9.37;8.43;;;;;;;6.63;70.90;96077.38;5033080;28;20509;-67
2022/04/21 02:14:16;;;;;;;10.07;8.57;;;;;;;6.60;70.65;96072.63;5033356;28;20187;-67
2022/04/21 02:16:42;;;;;;;10.33;8.73;;;;;;;6.69;70.82;96070.50;5015413;28;20233;-69
2022/04/21 02:19:07;;;;;;;9.63;8.53;;;;;;;6.67;70.97;96062.13;5032833;28;20198;-69
2022/04/21 02:21:32;;;;;;;9.80;8.47;;;;;;;6.82;70.52;96059.91;5015567;28;20277;-67
2022/04/21 02:23:58;;;;;;;11.47;9.03;;;;;;;6.82;70.72;96065.13;5014535;28;20584;-68
2022/04/21 02:26:24;;;;;;;9.50;8.60;;;;;;;6.82;70.86;96059.91;5032885;28;20182;-68
2022/04/21 02:28:49;;;;;;;13.70;9.60;;;;;;;6.73;71.03;96056.03;5032569;28;20206;-67
2022/04/21 02:31:14;;;;;;;10.30;9.30;;;;;;;6.76;71.34;96055.59;5032354;28;20269;-68
2022/04/21 02:33:39;;;;;;;10.30;9.20;;;;;;;6.71;71.71;96057.25;5014762;28;20187;-69
2022/04/21 02:36:05;;;;;;;13.07;9.40;;;;;;;6.78;71.39;96060.59;5033034;28;20182;-66
2022/04/21 02:38:30;;;;;;;9.87;8.90;;;;;;;6.78;71.21;96063.19;5032623;28;20247;-68
2022/04/21 02:40:56;;;;;;;10.67;9.53;;;;;;;6.98;70.73;96048.88;5032042;28;20182;-68
2022/04/21 02:43:21;;;;;;;10.90;8.87;;;;;;;6.80;70.98;96050.75;5015195;28;20265;-67
2022/04/21 02:45:46;;;;;;;10.10;9.07;;;;;;;6.68;71.66;96058.50;5015028;28;20199;-67
2022/04/21 02:48:14;;;;;;;12.10;9.63;;;;;;;6.77;71.36;96048.56;5015079;28;20205;-66
2022/04/21 02:50:40;;;;;;;14.20;9.37;;;;;;;6.71;71.89;96046.84;5032495;28;20198;-68
2022/04/21 02:53:06;;;;;;;11.40;10.23;;;;;;;6.75;71.64;96048.78;5032634;28;20190;-67
2022/04/21 02:58:15;;;;;;;15.27;9.60;;;;;;;6.50;72.63;96043.72;5032909;28;20186;-68
2022/04/21 03:00:41;;;;;;;10.63;9.53;;;;;;;6.58;72.67;96045.19;5032491;28;20190;-68
2022/04/21 03:03:06;;;;;;;11.10;9.97;;;;;;;6.62;72.46;96049.78;5035363;28;20712;-67
2022/04/21 03:05:31;;;;;;;12.53;10.17;;;;;;;6.51;73.01;96044.50;5036751;28;20182;-68
2022/04/21 03:07:57;;;;;;;12.17;9.93;;;;;;;6.58;73.09;96045.19;5036939;28;20205;-67
2022/04/21 03:10:22;;;;;;;15.40;10.57;;;;;;;6.52;72.95;96035.69;5036083;28;20179;-68
2022/04/21 03:12:48;;;;;;;10.70;9.63;;;;;;;6.55;72.80;96035.22;5036507;28;20190;-68
2022/04/21 03:15:13;;;;;;;11.50;10.27;;;;;;;6.46;73.37;96032.16;5036102;28;20180;-69
2022/04/21 03:17:41;;;;;;;11.30;10.20;;;;;;;6.47;73.68;96032.91;5018005;28;20183;-68
2022/04/21 03:20:07;;;;;;;12.13;10.20;;;;;;;6.58;73.36;96032.19;5036370;28;20183;-68
2022/04/21 03:25:17;;;;;;;11.67;10.47;;;;;;;6.50;73.40;96033.28;5036663;28;20181;-67
2022/04/21 03:27:46;;;;;;;12.23;10.57;;;;;;;6.49;73.58;96023.88;5036239;28;20183;-69
2022/04/21 03:30:12;;;;;;;12.57;10.67;;;;;;;6.48;73.78;96030.09;5035958;28;20187;-68
2022/04/21 03:32:37;;;;;;;12.00;10.53;;;;;;;6.47;73.54;96030.31;5036781;28;20182;-69
2022/04/21 03:35:03;;;;;;;13.50;11.30;;;;;;;6.57;73.70;96028.81;5036036;28;20190;-68
2022/04/21 03:37:29;;;;;;;13.43;10.93;;;;;;;6.42;74.00;96027.56;5018390;28;20220;-68
2022/04/21 03:39:54;;;;;;;11.97;10.67;;;;;;;6.40;74.35;96020.00;5017989;28;20280;-69
2022/04/21 03:42:23;;;;;;;12.83;11.23;;;;;;;6.32;74.52;96015.09;5035576;28;20193;-69
2022/04/21 03:44:49;;;;;;;12.13;10.83;;;;;;;6.42;74.47;96014.56;5035695;28;20198;-68
2022/04/21 03:47:14;;;;;;;14.10;11.33;;;;;;;6.44;74.18;96020.34;5036352;28;20182;-67
2022/04/21 03:49:39;;;;;;;12.93;11.53;;;;;;;6.30;75.05;96016.34;5036275;28;20203;-68
2022/04/21 03:52:05;;;;;;;13.17;11.87;;;;;;;6.36;74.77;96016.22;5035864;28;20194;-67
2022/04/21 03:54:31;;;;;;;14.60;11.83;;;;;;;6.33;75.12;96010.69;5035629;28;20210;-70
2022/04/21 03:56:56;;;;;;;13.57;11.93;;;;;;;6.49;74.43;96017.88;5018233;28;20269;-68
2022/04/21 03:59:25;;;;;;;12.83;11.33;;;;;;;6.49;74.36;96017.88;5035665;28;20175;-68
2022/04/21 04:01:56;;;;;;;13.53;12.13;;;;;;;6.37;74.76;96023.03;5035835;28;20530;-67
2022/04/21 04:04:22;;;;;;;14.73;13.23;;;;;;;6.28;75.11;96018.34;5034954;28;20312;-68
2022/04/21 04:12:15;;;;;;;15.07;11.70;;;;;;;6.36;75.39;96024.03;5035513;28;20232;-68
2022/04/21 04:14:40;;;;;;;15.20;12.83;;;;;;;6.41;74.90;96024.19;5035052;28;20277;-68
2022/04/21 04:17:08;;;;;;;15.53;12.67;;;;;;;6.30;75.57;96013.72;5018087;28;20205;-67
2022/04/21 04:19:34;;;;;;;20.17;12.47;;;;;;;6.31;75.16;96020.50;5035383;28;20206;-68
2022/04/21 04:22:00;;;;;;;14.27;12.17;;;;;;;6.37;75.53;96020.44;5035147;28;20182;-68
2022/04/21 04:24:26;;;;;;;14.23;12.73;;;;;;;6.41;74.98;96013.75;5035384;28;20238;-68
2022/04/21 04:26:52;;;;;;;14.63;13.10;;;;;;;6.41;74.93;96026.00;5017665;28;20647;-68
2022/04/21 04:29:22;;;;;;;15.63;12.30;;;;;;;6.35;75.27;96017.28;5035490;28;20199;-68
2022/04/21 04:31:49;;;;;;;14.43;12.57;;;;;;;6.43;75.18;96016.16;5035503;28;20261;-68
2022/04/21 04:34:15;;;;;;;14.93;13.07;;;;;;;6.39;74.97;96022.81;5035212;28;20190;-68
2022/04/21 04:36:41;;;;;;;13.97;12.40;;;;;;;6.41;75.42;96024.19;5034670;28;20293;-68
2022/04/21 04:39:07;;;;;;;16.07;13.57;;;;;;;6.42;75.10;96030.19;5035077;28;20190;-71
2022/04/21 04:44:16;;;;;;;14.23;12.47;;;;;;;6.39;75.41;96025.44;5034763;28;20181;-67
2022/04/21 04:46:43;;;;;;;13.93;11.93;;;;;;;6.43;75.35;96014.34;5017295;28;20186;-67
2022/04/21 04:49:09;;;;;;;14.27;12.70;;;;;;;6.41;75.31;96018.22;5016800;28;20221;-68
2022/04/21 04:51:37;;;;;;;16.47;12.93;;;;;;;6.43;75.45;96016.97;5034750;28;20191;-67
2022/04/21 04:54:06;;;;;;;16.60;12.40;;;;;;;6.69;74.79;96015.81;5034582;28;20178;-68
2022/04/21 04:56:31;;;;;;;13.97;11.13;;;;;;;6.71;74.36;96013.78;5034434;28;20220;-68
2022/04/21 04:58:57;;;;;;;13.57;11.30;;;;;;;6.69;74.59;96015.81;5034699;28;20281;-68
2022/04/21 05:01:30;;;;;;;12.77;11.37;;;;;;;7.05;73.18;96020.13;5034457;28;20601;-67
2022/04/21 05:04:03;;;;;;;13.30;11.30;;;;;;;7.27;72.36;96015.97;5033988;28;20225;-66
2022/04/21 05:06:29;;;;;;;11.97;10.77;;;;;;;7.31;72.11;96017.13;5034195;28;20194;-70
2022/04/21 05:08:56;;;;;;;12.67;11.37;;;;;;;7.49;71.11;96017.03;5033812;28;20753;-67
2022/04/21 05:11:21;;;;;;;11.87;10.30;;;;;;;7.76;70.37;96017.38;5016892;28;20205;-68
2022/04/21 05:13:47;;;;;;;14.40;10.87;;;;;;;7.66;70.77;96014.53;5034386;28;20545;-67
2022/04/21 05:16:13;;;;;;;12.07;10.87;;;;;;;7.86;69.70;96014.19;5016912;28;20224;-68
2022/04/21 05:18:39;;;;;;;11.73;10.53;;;;;;;7.95;69.02;96020.66;5033952;28;20262;-68
2022/04/21 05:21:05;;;;;;;11.37;10.23;;;;;;;7.88;69.51;96010.34;5033479;28;20266;-67
2022/04/21 05:23:33;;;;;;;13.00;11.70;;;;;;;8.02;68.61;96015.31;5034352;28;20641;-67
2022/04/21 05:25:58;;;;;;;13.03;11.37;;;;;;;7.72;69.76;96007.63;5033058;28;20187;-67
2022/04/21 05:28:24;;;;;;;12.93;11.50;;;;;;;8.05;68.77;96012.25;5033843;28;20274;-67
2022/04/21 05:30:56;;;;;;;13.03;10.70;;;;;;;8.02;68.78;96008.28;5034435;28;20182;-67
2022/04/21 05:33:24;;;;;;;13.57;10.87;;;;;;;7.89;69.34;96013.75;5033722;28;20550;-68
2022/04/21 05:35:49;;;;;;;12.73;10.83;;;;;;;8.21;68.29;96009.72;5032953;28;20202;-68
2022/04/21 05:38:16;;;;;;;11.70;10.50;;;;;;;8.37;67.87;96005.63;5034141;28;20306;-67
2022/04/21 05:40:43;;;;;;;12.13;10.13;;;;;;;8.84;66.03;96002.84;5033019;28;20661;-68
2022/04/21 05:43:11;;;;;;;11.57;10.37;;;;;;;8.95;65.60;96005.41;5033579;28;20213;-67
2022/04/21 05:45:37;;;;;;;11.87;10.57;;;;;;;9.22;64.40;96002.97;5033087;28;20674;-68
2022/04/21 05:48:03;;;;;;;11.43;10.23;;;;;;;9.24;64.52;96016.59;5034099;28;20217;-67
2022/04/21 05:50:29;;;;;;;11.43;10.23;;;;;;;9.27;63.14;96010.88;5033829;28;20193;-68
2022/04/21 05:52:58;;;;;;;11.00;9.90;;;;;;;9.33;63.30;96009.16;5033641;28;20297;-68
2022/04/21 05:55:24;;;;;;;12.07;10.70;;;;;;;8.74;64.76;96004.25;5015701;28;20179;-68
2022/04/21 05:57:50;;;;;;;10.50;9.40;;;;;;;9.22;63.64;96004.78;5033628;28;20590;-67
2022/04/21 06:00:15;;;;;;;12.57;10.27;;;;;;;9.06;64.39;95999.31;5033082;28;20179;-66
2022/04/21 06:02:41;;;;;;;11.83;9.67;;;;;;;9.32;63.16;96004.94;5032462;28;20221;-69
2022/04/21 06:05:06;;;;;;;11.33;10.13;;;;;;;9.58;62.23;96001.72;5032840;28;20175;-68
2022/04/21 06:07:32;;;;;;;15.53;10.47;;;;;;;9.59;61.98;96004.06;5015253;28;20182;-68
2022/04/21 06:09:57;;;;;;;12.33;10.63;;;;;;;9.34;62.71;96000.28;5033453;28;20199;-67
2022/04/21 06:12:25;;;;;;;11.17;9.97;;;;;;;10.09;61.07;95997.16;5032888;28;20286;-67
2022/04/21 06:14:54;;;;;;;11.60;10.40;;;;;;;9.99;60.67;96000.44;5033068;28;20245;-68
2022/04/21 06:17:19;;;;;;;13.67;10.30;;;;;;;9.99;61.07;95998.63;5033045;28;20219;-68
2022/04/21 06:19:44;;;;;;;13.80;10.53;;;;;;;10.08;60.40;96001.63;5033256;28;20203;-67
2022/04/21 06:22:10;;;;;;;12.93;11.53;;;;;;;10.35;60.32;95996.50;5032391;28;20206;-69
2022/04/21 06:24:38;;;;;;;13.00;11.60;;;;;;;9.68;60.93;95995.81;5033186;28;20186;-68
2022/04/21 06:27:04;;;;;;;12.90;11.47;;;;;;;9.88;61.17;95989.03;5032375;28;20187;-68
2022/04/21 06:29:30;;;;;;;17.93;13.10;;;;;;;9.89;61.49;95998.50;5032685;28;20664;-68
2022/04/21 06:31:55;;;;;;;18.90;12.90;;;;;;;9.73;61.89;95990.66;5032319;28;20190;-70
2022/04/21 06:34:22;;;;;;;18.77;11.73;;;;;;;9.94;61.38;95992.53;5032495;28;20567;-68
2022/04/21 06:36:48;;;;;;;13.07;10.23;;;;;;;10.14;60.04;95995.41;5032368;28;20269;-68
2022/04/21 06:39:13;;;;;;;12.57;10.73;;;;;;;9.62;60.64;95994.16;5032389;28;20578;-68
2022/04/21 06:41:38;;;;;;;12.43;10.63;;;;;;;10.07;60.36;95994.00;5032615;28;20229;-69
2022/04/21 06:49:32;;;;;;;12.57;11.20;;;;;;;9.95;60.18;95996.72;5032694;28;20205;-68
2022/04/21 06:51:57;;;;;;;15.37;10.87;;;;;;;10.22;59.32;96000.25;5032451;28;20557;-68
2022/04/21 06:54:22;;;;;;;14.10;11.43;;;;;;;10.67;58.38;96005.22;5032565;28;20206;-69
2022/04/21 06:56:48;;;;;;;13.27;10.87;;;;;;;10.43;58.00;95999.44;5027765;28;20605;-68
2022/04/21 06:59:17;;;;;;;14.03;10.80;;;;;;;10.06;58.48;96002.88;5032809;28;20194;-73
2022/04/21 07:01:43;;;;;;;14.17;12.13;;;;;;;10.05;59.44;96001.31;5020589;28;20277;-75
2022/04/21 07:04:08;;;;;;;16.13;11.60;;;;;;;10.09;59.78;95991.91;5022349;28;20700;-69
2022/04/21 07:06:33;;;;;;;12.43;10.90;;;;;;;10.49;58.42;96000.31;5029513;28;20269;-68
2022/04/21 07:08:59;;;;;;;13.03;11.17;;;;;;;10.55;58.59;95999.31;5013121;28;20206;-68
2022/04/21 07:11:24;;;;;;;13.70;11.13;;;;;;;10.67;57.34;96001.81;5031798;28;20264;-68
2022/04/21 07:13:51;;;;;;;11.73;10.43;;;;;;;10.38;57.66;96009.88;5024029;28;20190;-67
2022/04/21 07:16:17;;;;;;;12.73;10.40;;;;;;;10.54;57.35;96002.97;5032120;28;20237;-69
2022/04/21 07:18:42;;;;;;;13.23;10.90;;;;;;;10.50;57.44;96004.50;5031770;28;20551;-69
2022/04/21 07:21:09;;;;;;;13.27;10.90;;;;;;;11.06;56.30;96008.50;5025168;28;20262;-66
2022/04/21 07:23:35;;;;;;;14.67;10.93;;;;;;;11.48;55.33;96005.97;5031989;28;20642;-67
2022/04/21 07:26:01;;;;;;;11.87;10.20;;;;;;;11.44;55.10;96004.09;5031191;28;20182;-68
2022/04/21 07:28:26;;;;;;;18.27;10.70;;;;;;;11.57;54.93;96007.09;5031700;28;20260;-68
2022/04/21 07:30:52;;;;;;;15.17;10.43;;;;;;;11.76;54.13;96006.75;5032059;28;20681;-66
2022/04/21 07:33:17;;;;;;;12.50;10.13;;;;;;;11.52;54.52;96007.06;5031880;28;20536;-67
2022/04/21 07:35:43;;;;;;;11.17;9.23;;;;;;;11.16;55.52;96010.41;5031384;28;20198;-67
2022/04/21 07:38:10;;;;;;;11.50;9.47;;;;;;;10.90;56.21;96008.59;5031682;28;20179;-68
2022/04/21 07:40:36;;;;;;;11.27;10.07;;;;;;;10.64;57.00;96005.72;5030955;28;20186;-68
2022/04/21 07:43:07;;;;;;;11.53;9.90;;;;;;;10.47;57.69;96012.09;5032145;28;20178;-69
2022/04/21 07:45:33;;;;;;;12.67;9.97;;;;;;;10.59;57.33;96010.13;5031766;28;20216;-69
2022/04/21 07:47:58;;;;;;;12.90;8.97;;;;;;;10.84;56.99;96000.69;5014940;28;20191;-68
2022/04/21 07:50:24;;;;;;;12.83;9.67;;;;;;;10.80;56.98;96004.84;5035958;28;20175;-68
2022/04/21 07:55:33;;;;;;;9.93;8.93;;;;;;;10.95;56.89;96003.41;5016197;28;20174;-67
2022/04/21 07:57:59;;;;;;;11.37;9.73;;;;;;;10.87;56.91;95999.41;5016171;28;20551;-67
2022/04/21 08:00:25;;;;;;;11.00;9.43;;;;;;;10.91;57.20;95997.09;5015699;28;20189;-68
2022/04/21 08:02:50;;;;;;;10.07;9.07;;;;;;;11.16;56.40;95994.69;5015752;28;20235;-69
2022/04/21 08:05:18;;;;;;;10.70;8.97;;;;;;;11.43;55.56;95994.63;5022123;28;20167;-67
2022/04/21 08:07:45;;;;;;;17.13;9.50;;;;;;;12.01;54.54;95989.28;5035003;28;20236;-66
2022/04/21 08:10:11;;;;;;;13.00;8.60;;;;;;;11.83;52.93;95994.94;5035118;28;20677;-67
2022/04/21 08:12:45;;;;;;;11.07;9.00;;;;;;;11.82;53.07;95988.13;5035176;28;20229;-66
2022/04/21 08:15:13;;;;;;;9.60;8.10;;;;;;;11.36;53.41;95997.50;5035188;28;20213;-68
2022/04/21 08:17:38;;;;;;;12.47;8.37;;;;;;;11.54;53.98;95988.41;5035692;28;20174;-67
2022/04/21 08:20:09;;;;;;;10.30;8.53;;;;;;;11.64;54.01;95980.63;5035597;28;20185;-67
2022/04/21 08:22:35;;;;;;;8.53;7.63;;;;;;;11.78;53.59;95986.25;5017632;28;20221;-66
2022/04/21 08:33:14;;;;;;;8.00;7.13;;;;;;;11.74;53.46;95978.09;5015278;28;20171;-67
2022/04/21 08:35:40;;;;;;;8.23;7.43;;;;;;;12.04;52.47;95980.88;5015460;28;20657;-68
2022/04/21 08:38:09;;;;;;;9.40;6.80;;;;;;;12.20;52.07;95970.47;5015237;28;20176;-66
2022/04/21 08:40:37;;;;;;;8.50;7.60;;;;;;;12.14;51.95;95974.91;5014658;28;20175;-67
2022/04/21 08:43:11;;;;;;;8.30;7.37;;;;;;;12.20;51.03;95975.72;5015151;28;20191;-67
2022/04/21 08:45:37;;;;;;;8.10;7.07;;;;;;;12.50;50.58;95973.19;5015467;28;20175;-67
2022/04/21 08:48:04;;;;;;;8.67;7.07;;;;;;;12.29;50.65;95974.97;5015253;28;20599;-68
2022/04/21 08:50:31;;;;;;;8.20;6.80;;;;;;;12.51;51.05;95980.03;5022923;28;20183;-68
2022/04/21 08:52:57;;;;;;;8.50;7.30;;;;;;;12.65;50.24;95975.09;5034153;28;20186;-67
2022/04/21 08:55:22;;;;;;;7.20;6.50;;;;;;;12.54;49.95;95976.88;5034009;28;20308;-68
2022/04/21 08:57:49;;;;;;;7.80;6.77;;;;;;;12.33;50.53;95980.50;5034134;28;20182;-67
2022/04/21 09:00:15;;;;;;;9.67;7.20;;;;;;;12.27;50.43;95974.44;5034116;28;20191;-67
2022/04/21 09:02:45;;;;;;;7.90;7.10;;;;;;;12.25;49.92;95976.53;5033910;28;20685;-67
2022/04/21 09:05:11;;;;;;;7.57;6.87;;;;;;;12.26;50.18;95972.84;5034286;28;20737;-66
2022/04/21 09:08:01;;;;;;;10.63;7.37;;;;;;;12.38;51.04;95973.41;5034189;28;20265;-67
2022/04/21 09:10:33;;;;;;;10.57;8.17;;;;;;;12.41;50.91;95972.91;5034629;28;20178;-67
2022/04/21 09:13:01;;;;;;;9.57;7.47;;;;;;;12.58;49.95;95977.19;5034282;28;20543;-67
2022/04/21 09:15:30;;;;;;;8.30;7.47;;;;;;;12.62;49.77;95971.13;5033871;28;20266;-67
2022/04/21 09:17:57;;;;;;;8.97;7.37;;;;;;;12.42;50.13;95971.09;5034477;28;20171;-67
2022/04/21 09:20:24;;;;;;;10.17;6.87;;;;;;;12.72;50.14;95975.63;5014698;28;20191;-68
2022/04/21 09:22:54;;;;;;;8.67;7.57;;;;;;;13.09;49.70;95970.97;4996978;28;20257;-67
2022/04/21 09:25:28;;;;;;;8.03;7.23;;;;;;;12.93;49.19;95964.88;5014506;28;20172;-66
2022/04/21 09:27:54;;;;;;;9.73;7.17;;;;;;;12.21;50.22;95972.03;5014477;28;20179;-67
2022/04/21 09:30:20;;;;;;;9.83;7.83;;;;;;;12.69;50.34;95966.44;4996652;28;20230;-66
2022/04/21 09:32:56;;;;;;;8.27;7.40;;;;;;;12.62;50.30;95968.50;5014438;28;20626;-67
2022/04/21 09:35:26;;;;;;;7.90;7.10;;;;;;;12.75;49.71;95969.88;5014068;28;20270;-67
2022/04/21 09:37:56;;;;;;;9.90;7.03;;;;;;;12.77;49.35;95959.84;5014450;28;20168;-67
2022/04/21 09:40:25;;;;;;;8.07;6.77;;;;;;;12.58;49.73;95958.78;5013615;28;20682;-68
2022/04/21 09:42:58;;;;;;;9.90;7.13;;;;;;;12.71;50.25;95964.31;4996530;28;20241;-67
2022/04/21 09:48:29;;;;;;;8.47;7.17;;;;;;;12.91;48.81;95945.97;5013940;28;20290;-69
2022/04/21 09:51:05;;;;;;;10.37;7.13;;;;;;;12.93;48.79;95945.66;5013805;28;20171;-67
2022/04/21 09:53:31;;;;;;;8.57;7.50;;;;;;;12.96;49.23;95932.00;5014111;28;20179;-67
2022/04/21 09:56:08;;;;;;;7.73;6.93;;;;;;;13.17;49.25;95931.00;5014187;28;20175;-68
2022/04/21 09:58:38;;;;;;;7.90;6.93;;;;;;;12.97;49.27;95927.53;5015908;28;20186;-67
2022/04/21 10:01:04;;;;;;;8.60;7.20;;;;;;;12.99;49.46;95928.84;5023929;28;20182;-67
2022/04/21 10:03:33;;;;;;;7.67;6.47;;;;;;;12.74;49.79;95915.69;5032561;28;20237;-68
2022/04/21 10:05:59;;;;;;;7.17;6.23;;;;;;;13.04;49.29;95920.19;5032902;28;20202;-68
2022/04/21 10:08:24;;;;;;;7.20;6.10;;;;;;;12.84;49.71;95924.38;5033101;28;20281;-68
2022/04/21 10:10:53;;;;;;;6.67;5.97;;;;;;;12.80;50.01;95915.44;5032749;28;20193;-67
2022/04/21 10:13:18;;;;;;;6.77;5.90;;;;;;;13.15;49.50;95909.41;5033189;28;20182;-68
2022/04/21 10:15:44;;;;;;;6.47;5.80;;;;;;;13.05;49.79;95919.91;5032478;28;20198;-68
2022/04/21 10:18:15;;;;;;;6.53;5.93;;;;;;;13.23;49.07;95908.09;5015400;28;20191;-68
2022/04/21 10:20:41;;;;;;;6.50;5.50;;;;;;;13.20;49.09;95908.63;5034035;28;20291;-68
2022/04/21 10:23:13;;;;;;;5.50;5.00;;;;;;;13.19;48.49;95910.47;5033150;28;20183;-67
2022/04/21 10:25:40;;;;;;;4.77;4.30;;;;;;;13.29;48.48;95904.41;5033652;28;20213;-67
2022/04/21 10:28:35;;;;;;;5.30;4.80;;;;;;;13.70;49.05;95902.50;5033032;28;20179;-70
2022/04/21 10:31:28;;;;;;;6.03;5.20;;;;;;;13.95;47.89;95896.34;5033384;28;20183;-68
2022/04/21 10:33:56;;;;;;;6.33;5.30;;;;;;;13.84;48.46;95897.44;5032655;28;20515;-67
2022/04/21 10:37:07;;;;;;;6.00;4.67;;;;;;;13.70;49.04;95892.75;5032825;28;20264;-67
2022/04/21 10:39:33;;;;;;;5.87;5.27;;;;;;;13.39;48.61;95883.34;4986863;28;20233;-68
2022/04/21 10:42:18;;;;;;;5.20;4.70;;;;;;;13.58;48.67;95878.31;5032731;28;20637;-68
2022/04/21 10:45:06;;;;;;;4.60;4.20;;;;;;;13.49;48.01;95880.69;5033197;28;20192;-68
2022/04/21 10:47:36;;;;;;;4.47;3.70;;;;;;;13.99;47.93;95877.09;5030851;28;20226;-68
2022/04/21 10:50:19;;;;;;;5.17;4.17;;;;;;;14.06;47.58;95874.97;5031902;28;20209;-67
2022/04/21 10:58:51;;;;;;;4.20;3.80;;;;;;;14.74;45.84;95864.59;5031934;28;20293;-68
2022/04/21 11:01:18;;;;;;;4.30;3.90;;;;;;;14.83;45.77;95855.00;5015993;28;20561;-68
2022/04/21 11:03:46;;;;;;;4.40;4.00;;;;;;;14.53;46.40;95863.94;5031534;28;20241;-69
2022/04/21 11:06:11;;;;;;;3.80;3.50;;;;;;;14.59;46.39;95853.34;5031507;28;20178;-68
2022/04/21 11:08:37;;;;;;;6.20;3.63;;;;;;;14.79;46.56;95853.19;5031330;28;20566;-69
2022/04/21 11:11:04;;;;;;;4.30;3.90;;;;;;;14.97;45.99;95842.78;5032440;28;20183;-68
2022/04/21 11:13:50;;;;;;;4.10;3.80;;;;;;;14.45;47.87;95848.69;5032271;28;20191;-68
2022/04/21 11:16:40;;;;;;;5.17;4.43;;;;;;;14.52;47.13;95848.38;5032316;28;20675;-69
2022/04/21 11:19:37;;;;;;;5.07;4.57;;;;;;;15.04;46.61;95831.09;5032385;28;20545;-69
2022/04/21 11:22:07;;;;;;;5.10;4.70;;;;;;;14.85;46.38;95846.81;5020733;28;20672;-69
2022/04/21 11:24:55;;;;;;;4.33;4.03;;;;;;;15.03;46.01;95830.31;5036017;28;20182;-68
2022/04/21 11:27:21;;;;;;;5.57;3.87;;;;;;;15.24;46.47;95828.28;5016418;28;20189;-68
2022/04/21 11:29:46;;;;;;;4.07;3.63;;;;;;;15.02;46.66;95820.81;5035358;28;20199;-68
2022/04/21 11:32:16;;;;;;;4.67;3.77;;;;;;;15.06;47.38;95821.84;5036903;28;20179;-68
2022/04/21 11:34:42;;;;;;;4.10;3.70;;;;;;;15.15;46.04;95822.03;5036060;28;20198;-68
2022/04/21 11:37:07;;;;;;;2.50;2.30;;;;;;;15.20;45.80;95820.13;5035793;28;20185;-68
2022/04/21 11:39:38;;;;;;;2.57;2.37;;;;;;;15.19;44.60;95815.91;5035364;28;20195;-70
2022/04/21 11:42:04;;;;;;;2.37;2.17;;;;;;;15.03;44.95;95817.13;5020470;28;20193;-69
2022/04/21 11:44:29;;;;;;;3.60;2.70;;;;;;;14.78;45.91;95809.41;5035900;28;20182;-67
2022/04/21 11:46:55;;;;;;;3.37;2.50;;;;;;;14.75;45.50;95816.03;5035193;28;20198;-67
2022/04/21 11:49:20;;;;;;;2.57;2.37;;;;;;;14.76;45.75;95812.34;5035199;28;20206;-68
2022/04/21 11:51:52;;;;;;;2.30;2.10;;;;;;;15.17;45.19;95815.38;5035888;28;20178;-67
2022/04/21 11:54:18;;;;;;;4.37;2.87;;;;;;;15.65;43.84;95804.91;5035480;28;20183;-68
2022/04/21 11:56:49;;;;;;;2.93;2.70;;;;;;;16.41;42.79;95795.94;5034350;28;20194;-67
2022/04/21 11:59:15;;;;;;;2.30;2.10;;;;;;;15.97;42.46;95801.56;5035294;28;20608;-67
2022/04/21 12:07:16;;;;;;;1.27;1.27;;;;;;;16.12;41.16;95786.28;5019761;28;20688;-69
2022/04/21 12:09:43;;;;;;;1.90;1.70;;;;;;;16.12;40.95;95788.94;5033733;28;20564;-69
2022/04/21 12:12:10;;;;;;;2.40;1.50;;;;;;;16.38;40.83;95783.31;5034976;28;20187;-68
2022/04/21 12:14:40;;;;;;;1.13;1.13;;;;;;;16.51;40.71;95775.41;5017600;28;20186;-69
2022/04/21 12:17:06;;;;;;;1.50;1.40;;;;;;;16.60;39.90;95779.00;5029076;28;20663;-68
2022/04/21 12:19:42;;;;;;;1.20;1.20;;;;;;;16.45;40.14;95786.34;5017029;28;20240;-67
2022/04/21 12:22:11;;;;;;;1.20;1.20;;;;;;;16.40;40.55;95771.34;5035079;28;20178;-67
2022/04/21 12:24:43;;;;;;;2.40;1.07;;;;;;;15.98;41.32;95768.78;5035264;28;20226;-67